createdAt,value
2023-03-17T00:01:54.697Z,68.61
2023-03-17T00:04:24.684Z,68.41
2023-03-17T00:06:54.282Z,68.49
2023-03-17T00:09:22.773Z,68.53
2023-03-17T00:11:50.733Z,68.47
2023-03-17T00:14:19.657Z,68.51
2023-03-17T00:16:52.764Z,68.60
2023-03-17T00:19:35.198Z,68.62
2023-03-17T00:22:06.065Z,68.63
2023-03-17T00:24:34.089Z,68.71
2023-03-17T00:27:02.314Z,68.80
2023-03-17T00:29:29.743Z,68.92
2023-03-17T00:31:57.679Z,68.86
2023-03-17T00:34:25.148Z,68.87
2023-03-17T00:36:53.422Z,68.91
2023-03-17T00:39:20.921Z,68.94
2023-03-17T00:41:49.072Z,69.02
2023-03-17T00:44:16.495Z,68.91
2023-03-17T00:46:44.702Z,69.02
2023-03-17T00:51:47.232Z,69.17
2023-03-17T00:54:17.261Z,69.30
2023-03-17T00:56:46.087Z,69.38
2023-03-17T00:59:33.279Z,69.35
2023-03-17T01:02:00.889Z,69.39
2023-03-17T01:04:28.723Z,69.44
2023-03-17T01:06:58.432Z,69.49
2023-03-17T01:09:27.539Z,69.38
2023-03-17T01:11:55.878Z,69.40
2023-03-17T01:14:24.590Z,69.45
2023-03-17T01:16:56.023Z,69.31
2023-03-17T01:19:23.688Z,69.36
2023-03-17T01:21:52.196Z,69.38
2023-03-17T01:24:19.933Z,69.47
2023-03-17T01:26:47.339Z,69.32
2023-03-17T01:29:14.958Z,69.26
2023-03-17T01:31:42.449Z,69.34
2023-03-17T01:34:11.154Z,69.46
2023-03-17T01:36:38.653Z,69.33
2023-03-17T01:39:07.400Z,69.35
2023-03-17T01:41:36.486Z,69.40
2023-03-17T01:44:04.687Z,69.44
2023-03-17T01:46:35.406Z,69.33
2023-03-17T01:49:19.422Z,69.47
2023-03-17T01:52:09.129Z,69.48
2023-03-17T01:54:55.653Z,69.47
2023-03-17T01:57:37.115Z,69.43
2023-03-17T02:00:13.800Z,69.40
2023-03-17T02:02:44.786Z,69.43
2023-03-17T02:05:17.963Z,69.52
2023-03-17T02:07:45.762Z,69.61
2023-03-17T02:10:17.493Z,69.63
2023-03-17T02:12:48.432Z,69.50
2023-03-17T02:15:15.952Z,69.50
2023-03-17T02:17:43.558Z,69.51
2023-03-17T02:20:17.128Z,69.60
2023-03-17T02:22:48.803Z,69.63
2023-03-17T02:25:17.393Z,69.71
2023-03-17T02:27:48.158Z,69.71
2023-03-17T02:30:19.455Z,69.72
2023-03-17T02:32:47.873Z,69.61
2023-03-17T02:35:16.571Z,69.67
2023-03-17T02:37:45.986Z,69.69
2023-03-17T02:40:14.864Z,69.72
2023-03-17T02:42:42.459Z,69.69
2023-03-17T02:45:11.582Z,69.61
2023-03-17T02:47:41.370Z,69.63
2023-03-17T02:50:17.709Z,69.75
2023-03-17T02:52:45.337Z,69.67
2023-03-17T02:55:13.245Z,69.74
2023-03-17T02:57:41.204Z,69.79
2023-03-17T03:00:11.911Z,69.85
2023-03-17T03:02:40.333Z,69.92
2023-03-17T03:05:08.828Z,69.84
2023-03-17T03:07:36.514Z,69.69
2023-03-17T03:10:05.681Z,69.77
2023-03-17T03:12:33.198Z,69.86
2023-03-17T03:15:00.736Z,69.82
2023-03-17T03:17:28.456Z,69.85
2023-03-17T03:19:56.018Z,69.86
2023-03-17T03:22:23.528Z,69.95
2023-03-17T03:24:51.153Z,69.92
2023-03-17T03:27:19.003Z,70.02
2023-03-17T03:29:47.270Z,70.15
2023-03-17T03:32:14.692Z,70.13
2023-03-17T03:34:42.676Z,70.12
2023-03-17T03:37:10.497Z,70.15
2023-03-17T03:39:39.111Z,70.21
2023-03-17T03:42:06.990Z,70.36
2023-03-17T03:44:34.538Z,70.14
2023-03-17T03:47:02.723Z,70.18
2023-03-17T03:49:30.199Z,70.29
2023-03-17T03:51:57.684Z,70.20
2023-03-17T03:54:25.298Z,70.23
2023-03-17T03:56:52.702Z,70.29
2023-03-17T03:59:21.081Z,70.18
2023-03-17T04:01:50.071Z,70.26
2023-03-17T04:04:17.714Z,70.19
2023-03-17T04:06:45.386Z,70.32
2023-03-17T04:09:13.553Z,70.30
2023-03-17T04:11:43.421Z,70.38
2023-03-17T04:14:11.001Z,70.44
2023-03-17T04:16:39.049Z,70.59
2023-03-17T04:19:07.709Z,70.43
2023-03-17T04:21:36.779Z,70.52
2023-03-17T04:24:10.035Z,70.59
2023-03-17T04:26:37.616Z,70.53
2023-03-17T04:29:16.150Z,70.66
2023-03-17T04:31:44.425Z,70.49
2023-03-17T04:34:22.074Z,70.56
2023-03-17T04:36:54.100Z,70.64
2023-03-17T04:39:21.810Z,70.64
2023-03-17T04:41:49.261Z,70.59
2023-03-17T04:44:16.744Z,70.57
2023-03-17T04:46:45.588Z,70.79
2023-03-17T04:49:15.979Z,70.75
2023-03-17T04:51:44.566Z,70.66
2023-03-17T04:54:12.318Z,70.67
2023-03-17T04:56:40.501Z,70.62
2023-03-17T04:59:08.130Z,70.64
2023-03-17T05:01:39.074Z,70.56
2023-03-17T05:04:07.995Z,70.55
2023-03-17T05:06:37.345Z,70.64
2023-03-17T05:09:05.451Z,70.68
2023-03-17T05:11:32.943Z,70.69
2023-03-17T05:14:00.392Z,70.65
2023-03-17T05:16:27.924Z,70.84
2023-03-17T05:18:55.690Z,70.80
2023-03-17T05:21:23.281Z,70.87
2023-03-17T05:23:51.005Z,70.86
2023-03-17T05:26:19.892Z,70.80
2023-03-17T05:28:48.435Z,70.93
2023-03-17T05:31:16.191Z,71.09
2023-03-17T05:33:43.670Z,70.89
2023-03-17T05:36:11.164Z,70.93
2023-03-17T05:38:38.671Z,70.88
2023-03-17T05:41:06.343Z,70.91
2023-03-17T05:43:33.878Z,71.01
2023-03-17T05:46:01.369Z,70.92
2023-03-17T05:48:29.198Z,71.02
2023-03-17T05:50:57.933Z,71.02
2023-03-17T05:53:26.486Z,70.97
2023-03-17T05:55:54.460Z,70.97
2023-03-17T05:58:23.395Z,71.00
2023-03-17T06:00:51.117Z,70.85
2023-03-17T06:03:18.697Z,70.80
2023-03-17T06:05:46.363Z,70.86
2023-03-17T06:08:15.891Z,70.87
2023-03-17T06:10:43.485Z,70.89
2023-03-17T06:13:11.777Z,70.90
2023-03-17T06:15:39.444Z,70.87
2023-03-17T06:18:07.762Z,70.79
2023-03-17T06:20:40.700Z,70.86
2023-03-17T06:23:09.918Z,70.75
2023-03-17T06:25:37.475Z,70.80
2023-03-17T06:28:06.108Z,70.85
2023-03-17T06:30:40.481Z,70.85
2023-03-17T06:33:08.867Z,70.83
2023-03-17T06:35:38.975Z,70.86
2023-03-17T06:38:07.133Z,70.95
2023-03-17T06:40:49.197Z,70.84
2023-03-17T06:43:27.946Z,70.84
2023-03-17T06:45:55.632Z,70.69
2023-03-17T06:48:23.712Z,70.73
2023-03-17T06:50:53.524Z,70.75
2023-03-17T06:53:21.731Z,70.71
2023-03-17T06:55:54.722Z,70.77
2023-03-17T06:58:22.849Z,70.92
2023-03-17T07:00:55.037Z,70.80
2023-03-17T07:03:26.506Z,71.01
2023-03-17T07:05:54.796Z,70.91
2023-03-17T07:08:25.878Z,70.78
2023-03-17T07:10:57.887Z,70.87
2023-03-17T07:13:25.830Z,70.95
2023-03-17T07:15:55.441Z,70.95
2023-03-17T07:18:23.561Z,70.90
2023-03-17T07:20:51.015Z,71.08
2023-03-17T07:23:22.985Z,71.03
2023-03-17T07:25:53.033Z,70.92
2023-03-17T07:28:21.728Z,71.03
2023-03-17T07:30:50.900Z,71.02
2023-03-17T07:33:21.222Z,70.85
2023-03-17T07:35:49.865Z,70.77
2023-03-17T07:38:19.243Z,70.79
2023-03-17T07:40:48.905Z,70.69
2023-03-17T07:43:17.713Z,70.89
2023-03-17T07:45:46.916Z,70.88
2023-03-17T07:48:14.790Z,70.72
2023-03-17T07:50:43.030Z,70.70
2023-03-17T07:53:11.288Z,70.79
2023-03-17T07:55:38.894Z,70.78
2023-03-17T07:58:13.115Z,70.62
2023-03-17T08:00:44.534Z,70.69
2023-03-17T08:03:12.474Z,70.58
2023-03-17T08:05:41.043Z,70.67
2023-03-17T08:08:10.506Z,70.70
2023-03-17T08:10:38.051Z,70.68
2023-03-17T08:13:05.588Z,70.61
2023-03-17T08:15:33.180Z,70.41
2023-03-17T08:18:01.114Z,70.48
2023-03-17T08:20:30.179Z,70.60
2023-03-17T08:22:58.113Z,70.29
2023-03-17T08:25:25.868Z,70.19
2023-03-17T08:27:53.986Z,70.28
2023-03-17T08:30:21.704Z,70.09
2023-03-17T08:32:49.281Z,69.90
2023-03-17T08:35:18.532Z,69.86
2023-03-17T08:37:47.434Z,69.74
2023-03-17T08:40:17.722Z,69.39
2023-03-17T08:42:46.662Z,69.20
2023-03-17T08:45:18.330Z,69.01
2023-03-17T08:47:47.722Z,69.17
2023-03-17T08:50:19.222Z,69.48
2023-03-17T08:52:49.582Z,69.59
2023-03-17T08:55:24.802Z,69.50
2023-03-17T08:57:58.656Z,69.07
2023-03-17T09:00:26.634Z,68.70
2023-03-17T09:02:55.442Z,68.45
2023-03-17T09:05:27.316Z,68.50
2023-03-17T09:08:02.921Z,68.43
2023-03-17T09:10:31.470Z,68.25
2023-03-17T09:13:03.829Z,68.11
2023-03-17T09:15:34.317Z,68.15
2023-03-17T09:18:03.147Z,67.99
2023-03-17T09:20:35.138Z,67.17
2023-03-17T09:23:07.908Z,67.18
2023-03-17T09:25:41.660Z,67.24
2023-03-17T09:28:12.836Z,66.80
2023-03-17T09:30:42.772Z,66.63
2023-03-17T09:33:12.922Z,66.58
2023-03-17T09:35:41.476Z,66.42
2023-03-17T09:38:10.374Z,66.22
2023-03-17T09:41:10.953Z,66.18
2023-03-17T09:44:05.561Z,66.52
2023-03-17T09:46:54.795Z,66.15
2023-03-17T09:49:28.186Z,66.29
2023-03-17T09:51:56.067Z,66.17
2023-03-17T09:54:34.812Z,66.13
2023-03-17T09:57:20.048Z,65.87
2023-03-17T10:00:08.433Z,65.61
2023-03-17T10:02:45.322Z,65.75
2023-03-17T10:05:14.909Z,65.99
2023-03-17T10:08:01.643Z,65.74
2023-03-17T10:10:48.320Z,65.50
2023-03-17T10:13:27.459Z,65.48
2023-03-17T10:16:18.687Z,65.64
2023-03-17T10:19:18.435Z,65.19
2023-03-17T10:21:58.915Z,65.29
2023-03-17T10:24:29.798Z,65.26
2023-03-17T10:27:00.820Z,65.49
2023-03-17T10:29:29.228Z,65.56
2023-03-17T10:31:58.676Z,65.76
2023-03-17T10:34:37.361Z,65.96
2023-03-17T10:37:09.352Z,65.86
2023-03-17T10:39:56.185Z,65.69
2023-03-17T10:42:33.470Z,65.37
2023-03-17T10:45:33.200Z,65.40
2023-03-17T10:48:04.325Z,64.91
2023-03-17T10:50:39.714Z,65.12
2023-03-17T10:53:18.317Z,65.00
2023-03-17T10:55:54.380Z,64.63
2023-03-17T10:58:45.352Z,64.31
2023-03-17T11:01:33.369Z,63.05
2023-03-17T11:04:02.908Z,63.14
2023-03-17T11:06:41.949Z,62.99
2023-03-17T11:09:16.721Z,62.97
2023-03-17T11:11:48.995Z,62.72
2023-03-17T11:14:27.259Z,62.92
2023-03-17T11:16:56.662Z,63.07
2023-03-17T11:19:41.988Z,62.28
2023-03-17T11:22:15.984Z,62.06
2023-03-17T11:24:49.557Z,62.72
2023-03-17T11:27:30.437Z,62.46
2023-03-17T11:30:34.705Z,61.80
2023-03-17T11:33:33.827Z,61.76
2023-03-17T11:36:27.060Z,60.81
2023-03-17T11:39:05.672Z,60.90
2023-03-17T11:41:44.787Z,60.97
2023-03-17T11:44:36.327Z,60.92
2023-03-17T11:47:36.593Z,61.17
2023-03-17T11:50:20.062Z,61.16
2023-03-17T11:52:57.990Z,60.42
2023-03-17T11:55:41.099Z,60.39
2023-03-17T11:58:17.981Z,60.23
2023-03-17T12:00:52.460Z,60.17
2023-03-17T12:03:33.174Z,60.41
2023-03-17T12:06:08.472Z,60.17
2023-03-17T12:08:45.823Z,59.95
2023-03-17T12:11:19.377Z,59.82
2023-03-17T12:13:54.049Z,59.55
2023-03-17T12:16:43.402Z,59.48
2023-03-17T12:19:19.389Z,58.84
2023-03-17T12:21:53.035Z,58.61
2023-03-17T12:24:30.518Z,58.90
2023-03-17T12:27:05.932Z,59.03
2023-03-17T12:29:49.698Z,58.87
2023-03-17T12:32:38.585Z,58.80
2023-03-17T12:35:29.257Z,59.53
2023-03-17T12:38:03.882Z,59.77
2023-03-17T12:40:43.435Z,59.36
2023-03-17T12:43:38.470Z,58.87
2023-03-17T12:46:24.674Z,59.36
2023-03-17T12:49:11.161Z,59.07
2023-03-17T12:51:59.113Z,58.82
2023-03-17T12:54:30.961Z,57.96
2023-03-17T12:57:06.569Z,57.39
2023-03-17T12:59:36.788Z,57.25
2023-03-17T13:02:21.397Z,57.24
2023-03-17T13:04:58.182Z,56.59
2023-03-17T13:07:37.840Z,56.22
2023-03-17T13:10:41.961Z,56.68
2023-03-17T13:13:18.477Z,56.56
2023-03-17T13:15:57.322Z,56.66
2023-03-17T13:18:49.312Z,56.88
2023-03-17T13:21:20.632Z,56.76
2023-03-17T13:24:15.633Z,56.62
2023-03-17T13:27:02.066Z,56.20
2023-03-17T13:29:40.857Z,56.19
2023-03-17T13:32:27.720Z,55.81
2023-03-17T13:35:00.127Z,55.19
2023-03-17T13:37:35.700Z,54.50
2023-03-17T13:40:22.702Z,53.88
2023-03-17T13:43:02.067Z,53.75
2023-03-17T13:45:41.410Z,53.72
2023-03-17T13:48:27.473Z,54.32
2023-03-17T13:51:12.672Z,54.72
2023-03-17T13:54:14.903Z,54.36
2023-03-17T13:56:44.317Z,53.62
2023-03-17T13:59:20.511Z,54.19
2023-03-17T14:02:02.177Z,53.68
2023-03-17T14:04:44.666Z,53.26
2023-03-17T14:07:19.394Z,52.95
2023-03-17T14:09:46.837Z,52.80
2023-03-17T14:12:46.449Z,52.41
2023-03-17T14:15:36.074Z,52.35
2023-03-17T14:18:15.365Z,52.87
2023-03-17T14:21:01.345Z,53.26
2023-03-17T14:23:29.949Z,52.98
2023-03-17T14:25:58.788Z,52.45
2023-03-17T14:28:29.754Z,51.84
2023-03-17T14:31:04.308Z,52.01
2023-03-17T14:33:37.790Z,52.40
2023-03-17T14:36:09.354Z,51.89
2023-03-17T14:38:39.150Z,51.97
2023-03-17T14:41:22.641Z,51.92
2023-03-17T14:43:52.383Z,51.72
2023-03-17T14:46:24.646Z,51.59
2023-03-17T14:49:04.556Z,51.36
2023-03-17T14:51:37.794Z,50.96
2023-03-17T14:54:13.951Z,50.71
2023-03-17T14:56:48.230Z,50.37
2023-03-17T14:59:29.770Z,49.88
2023-03-17T15:02:05.297Z,49.20
2023-03-17T15:04:34.202Z,49.02
2023-03-17T15:07:09.022Z,49.11
2023-03-17T15:09:40.169Z,49.22
2023-03-17T15:12:26.186Z,49.27
2023-03-17T15:15:02.916Z,48.96
2023-03-17T15:17:36.717Z,48.95
2023-03-17T15:20:12.689Z,49.14
2023-03-17T15:22:48.342Z,49.05
2023-03-17T15:25:20.730Z,49.11
2023-03-17T15:27:48.301Z,48.90
2023-03-17T15:30:17.320Z,48.73
2023-03-17T15:33:01.321Z,48.71
2023-03-17T15:35:31.484Z,48.53
2023-03-17T15:37:59.039Z,48.50
2023-03-17T15:40:26.794Z,48.51
2023-03-17T15:42:54.345Z,48.49
2023-03-17T15:45:21.964Z,48.66
2023-03-17T15:47:49.441Z,48.67
2023-03-17T15:50:33.529Z,48.73
2023-03-17T15:53:01.435Z,48.63
2023-03-17T15:55:30.707Z,48.56
2023-03-17T15:57:59.614Z,48.71
2023-03-17T16:00:30.041Z,48.72
2023-03-17T16:03:04.161Z,48.41
2023-03-17T16:05:34.479Z,48.44
2023-03-17T16:08:02.324Z,48.51
2023-03-17T16:10:32.926Z,48.34
2023-03-17T16:13:00.870Z,48.20
2023-03-17T16:15:32.265Z,48.19
2023-03-17T16:18:04.195Z,48.13
2023-03-17T16:20:39.696Z,48.16
2023-03-17T16:23:27.166Z,48.09
2023-03-17T16:25:59.322Z,48.22
2023-03-17T16:28:33.566Z,48.21
2023-03-17T16:31:04.466Z,48.13
2023-03-17T16:33:40.929Z,48.15
2023-03-17T16:36:15.962Z,48.13
2023-03-17T16:38:46.408Z,48.14
2023-03-17T16:41:27.881Z,48.09
2023-03-17T16:44:01.384Z,48.08
2023-03-17T16:46:35.031Z,48.09
2023-03-17T16:49:04.337Z,48.17
2023-03-17T16:51:31.824Z,48.14
2023-03-17T16:53:59.293Z,48.27
2023-03-17T16:56:27.562Z,48.21
2023-03-17T16:58:55.336Z,48.23
2023-03-17T17:01:28.292Z,48.24
2023-03-17T17:03:56.392Z,48.35
2023-03-17T17:06:24.937Z,48.42
2023-03-17T17:08:53.020Z,48.43
2023-03-17T17:11:21.317Z,48.39
2023-03-17T17:13:49.226Z,48.42
2023-03-17T17:16:29.255Z,48.56
2023-03-17T17:18:57.903Z,48.49
2023-03-17T17:21:26.496Z,48.44
2023-03-17T17:23:55.850Z,48.47
2023-03-17T17:26:23.405Z,48.51
2023-03-17T17:28:50.968Z,48.59
2023-03-17T17:31:18.792Z,48.69
2023-03-17T17:33:46.468Z,48.69
2023-03-17T17:36:16.681Z,48.81
2023-03-17T17:38:44.928Z,48.86
2023-03-17T17:41:14.094Z,48.74
2023-03-17T17:43:42.026Z,48.81
2023-03-17T17:46:18.925Z,48.87
2023-03-17T17:48:48.838Z,48.83
2023-03-17T17:51:17.092Z,48.81
2023-03-17T17:53:45.128Z,48.91
2023-03-17T17:56:18.262Z,48.93
2023-03-17T17:58:46.812Z,48.95
2023-03-17T18:01:19.873Z,48.96
2023-03-17T18:03:49.348Z,48.90
2023-03-17T18:06:17.924Z,48.97
2023-03-17T18:08:45.969Z,48.99
2023-03-17T18:11:14.667Z,49.04
2023-03-17T18:13:42.240Z,48.89
2023-03-17T18:16:18.363Z,49.00
2023-03-17T18:18:47.334Z,49.07
2023-03-17T18:21:15.400Z,49.05
2023-03-17T18:23:47.245Z,48.90
2023-03-17T18:26:18.058Z,49.11
2023-03-17T18:28:48.556Z,48.96
2023-03-17T18:31:29.411Z,49.14
2023-03-17T18:34:03.707Z,49.10
2023-03-17T18:36:34.614Z,48.99
2023-03-17T18:39:02.459Z,49.01
2023-03-17T18:41:32.898Z,48.84
2023-03-17T18:44:00.621Z,49.00
2023-03-17T18:46:28.392Z,49.02
2023-03-17T18:48:56.007Z,49.07
2023-03-17T18:51:23.579Z,49.00
2023-03-17T18:53:51.149Z,48.89
2023-03-17T18:56:18.691Z,48.99
2023-03-17T18:58:46.260Z,49.04
2023-03-17T19:01:15.801Z,49.08
2023-03-17T19:03:43.254Z,48.92
2023-03-17T19:06:14.035Z,49.09
2023-03-17T19:08:43.217Z,49.06
2023-03-17T19:11:13.844Z,49.11
2023-03-17T19:13:42.134Z,49.20
2023-03-17T19:16:10.559Z,49.17
2023-03-17T19:18:41.922Z,49.16
2023-03-17T19:21:11.260Z,49.25
2023-03-17T19:23:41.296Z,49.26
2023-03-17T19:26:08.872Z,49.38
2023-03-17T19:28:36.406Z,49.32
2023-03-17T19:31:04.061Z,49.22
2023-03-17T19:33:32.665Z,49.32
2023-03-17T19:36:07.446Z,49.22
2023-03-17T19:38:36.461Z,49.49
2023-03-17T19:41:04.952Z,49.23
2023-03-17T19:43:40.262Z,49.41
2023-03-17T19:46:10.911Z,49.33
2023-03-17T19:48:38.942Z,49.28
2023-03-17T19:51:06.703Z,49.42
2023-03-17T19:53:40.554Z,49.51
2023-03-17T19:56:11.568Z,49.34
2023-03-17T19:58:39.258Z,49.34
2023-03-17T20:01:07.395Z,49.44
2023-03-17T20:03:37.796Z,49.58
2023-03-17T20:06:06.373Z,49.43
2023-03-17T20:08:35.338Z,49.46
2023-03-17T20:11:04.864Z,49.52
2023-03-17T20:13:34.352Z,49.46
2023-03-17T20:16:03.671Z,49.57
2023-03-17T20:18:31.603Z,49.57
2023-03-17T20:21:00.472Z,49.68
2023-03-17T20:23:27.911Z,49.50
2023-03-17T20:25:55.332Z,49.66
2023-03-17T20:28:22.943Z,49.68
2023-03-17T20:30:53.944Z,49.73
2023-03-17T20:33:21.654Z,49.66
2023-03-17T20:35:49.146Z,49.70
2023-03-17T20:38:17.324Z,49.75
2023-03-17T20:40:44.889Z,49.86
2023-03-17T20:43:12.825Z,49.84
2023-03-17T20:45:40.494Z,49.95
2023-03-17T20:48:10.529Z,49.96
2023-03-17T20:50:38.887Z,49.91
2023-03-17T20:53:07.485Z,49.88
2023-03-17T20:55:36.279Z,49.99
2023-03-17T20:58:03.871Z,49.96
2023-03-17T21:00:33.339Z,49.91
2023-03-17T21:03:01.945Z,50.17
2023-03-17T21:05:29.479Z,50.05
2023-03-17T21:07:57.619Z,49.99
2023-03-17T21:10:25.308Z,50.16
2023-03-17T21:12:52.880Z,50.10
2023-03-17T21:15:24.104Z,49.99
2023-03-17T21:17:52.199Z,50.07
2023-03-17T21:20:21.093Z,50.10
2023-03-17T21:22:49.764Z,50.03
2023-03-17T21:25:19.201Z,50.07
2023-03-17T21:27:46.665Z,50.15
2023-03-17T21:30:15.772Z,50.16
2023-03-17T21:32:43.303Z,50.15
2023-03-17T21:35:10.846Z,50.13
2023-03-17T21:37:38.385Z,50.17
2023-03-17T21:40:06.886Z,50.12
2023-03-17T21:42:34.670Z,50.24
2023-03-17T21:45:02.463Z,50.20
2023-03-17T21:47:30.191Z,50.25
2023-03-17T21:49:57.987Z,50.40
2023-03-17T21:52:26.013Z,50.29
2023-03-17T21:54:53.533Z,50.33
2023-03-17T21:57:22.776Z,50.40
2023-03-17T21:59:50.234Z,50.33
2023-03-17T22:02:17.786Z,50.31
2023-03-17T22:04:46.893Z,50.39
2023-03-17T22:07:16.743Z,50.41
2023-03-17T22:09:45.226Z,50.23
2023-03-17T22:12:15.548Z,50.34
2023-03-17T22:14:43.139Z,50.38
2023-03-17T22:17:10.730Z,50.50
2023-03-17T22:19:40.117Z,50.39
2023-03-17T22:22:08.317Z,50.46
2023-03-17T22:24:37.694Z,50.46
2023-03-17T22:27:05.819Z,50.50
2023-03-17T22:29:33.306Z,50.52
2023-03-17T22:32:02.218Z,50.50
2023-03-17T22:34:29.862Z,50.49
2023-03-17T22:36:57.373Z,50.63
2023-03-17T22:39:25.433Z,50.63
2023-03-17T22:41:52.971Z,50.43
2023-03-17T22:44:20.627Z,50.64
2023-03-17T22:46:48.244Z,50.53
2023-03-17T22:49:16.267Z,50.56
2023-03-17T22:51:43.840Z,50.56
2023-03-17T22:54:12.140Z,50.62
2023-03-17T22:56:39.663Z,50.58
2023-03-17T22:59:07.243Z,50.48
2023-03-17T23:01:38.652Z,50.61
2023-03-17T23:04:08.903Z,50.58
2023-03-17T23:06:36.550Z,50.77
2023-03-17T23:09:05.464Z,50.71
2023-03-17T23:11:32.997Z,50.76
2023-03-17T23:14:00.581Z,50.71
2023-03-17T23:16:28.226Z,50.76
2023-03-17T23:18:56.101Z,50.70
2023-03-17T23:21:30.835Z,50.86
2023-03-17T23:23:58.720Z,50.78
2023-03-17T23:26:28.176Z,50.88
2023-03-17T23:28:55.813Z,50.87
2023-03-17T23:31:23.904Z,51.00
2023-03-17T23:33:51.520Z,50.93
2023-03-17T23:36:19.317Z,50.89
2023-03-17T23:38:48.591Z,50.99
2023-03-17T23:41:17.377Z,50.97
2023-03-17T23:43:46.913Z,50.98
2023-03-17T23:46:15.197Z,50.93
2023-03-17T23:48:43.204Z,50.96
2023-03-17T23:51:12.624Z,51.17
2023-03-17T23:53:41.802Z,51.30
2023-03-17T23:56:11.280Z,51.11
2023-03-17T23:58:43.780Z,51.20
